Greenwood, New York
Current Conditions -  °F | °C
As of 4:18 PM on Tuesday 21 Oct 2014 (Local Time) from KELZ Reporting Station
Overcast Overcast  
Wind Chill: 45°   Ceiling: 1700
Heat Index: 49°   Visibility: 10mi
Dew Point: 46°   Wind: 8mph
Humidity: 90%   Direction: 300°WNW
Pressure: 29.88"   Gusts: NA
Location:  42.13°N, 77.65°W
Report Text: KELZ 212018Z AUTO 30007KT 10SM SCT008 BKN017 OVC047 09/08 A2988 RMK AO2 RAE10 P0000 T00940078
Loading
Personal Weather Stations






























Interactive Weather Map
Tropical Storm Tracking
New forecast layout! Learn more

10-Day Weather Forecast

Advertisements
Track Severe Weather on mobile